Weather at Volk Airport

Public forecast

Using degrees Celsius for public forecast. Weather courtesy of forecast.io.

Closest aviation weather report (METAR) to Volk Airport

Closest report is Toronto Lester B. Pearson International Airport, 20.1 nm (37.1 km) SSE.

2024/05/22 21:00 (retrieved 37 minutes ago)

CYYZ 222100Z 18013G20KT 15SM SCT045TCU BKN080 26/19 A2969 RMK TCU4AC2 TCU NW-NE MOV E SLP056 DENSITY ALT 2300FT

Closest aviation forecast (TAF) to Volk Airport

Closest forecast is Toronto Lester B. Pearson International Airport, 20.1 nm (37.1 km) SSE.

2024/05/22 21:42 (retrieved 0 seconds ago)

TAF TAF CYYZ 222040Z 2221/2324 20015G25KT P6SM SCT040 TEMPO 2221/2222 P6SM VCTS BKN040CB FM230000 24015G25KT P6SM SCT030 TEMPO 2300/2304 P6SM -SHRA VCTS BKN030CB FM230400 30015G30KT P6SM FEW030 BKN130 FM230800 30010KT P6SM SKC BECMG 2311/2313 25008KT FM231500 26010G20KT P6SM FEW040 BECMG 2322/2324 28010KT RMK NXT FCST BY 230000Z